Hiawatha, KS

08:07 PM CST 2016 abendua ren 10 an (GMT -0600)
w0msc | | Change Station

Elev 1089 ft 39.85 °N, 95.54 °W | Updated 2 seconds ago

Estalia
Estalia
32.5 °F
Feels Like 26 °F
N
7.0
Haizea Aldagarria Haizea from HE
Gusts 9.0 mph

Gaur
High -- | Low -- °F
--% Chance of Precip.
Yesterday
High -- | Low -- °F
Precip. -- in
Presioa 30.02 in
Ikusgaitasuna 10.0 Miliak
Clouds Oskarbia
Izozki haizeak 26 °F
Ihintzaren maila 24 °F
Afoinua 70%
Rainfall 0.00 in
Snow Depth Not available.
7:33 AM 4:57 PM
Waxing Gibbous, 88% visible
METAR KFNB 110153Z AUTO 14009KT 10SM CLR 01/M06 A2999 RMK AO2 SLP166 T00061056
Presioa 30.02 in
Ikusgaitasuna 10.0 Miliak
Clouds Oskarbia
Izozki haizeak 26 °F
Ihintzaren maila 24 °F
Afoinua 70%
Rainfall 0.00 in
Snow Depth Not available.
7:33 AM 4:57 PM
Waxing Gibbous, 88% visible
METAR KFNB 110153Z AUTO 14009KT 10SM CLR 01/M06 A2999 RMK AO2 SLP166 T00061056

10-Day Weather Forecast

Almanac

Astronomy

Dec. 10, 2016 Rise Set
Actual Time
Civil Twilight
Nautical Twilight
Astronomical Twilight
Moon
Length Of Visible Light
Length of Day
Tomorrow will be .
, % of the Moon is Illuminated

Today's Extremes

State Highs State Lows

Community

WunderPhotos

Upload Photos

1,956,690 photos uploaded!

WunderBlog® & News

Nearby

Air Quality

  Air Quality AQ Index Pollutant
Not available.

Snow Depth

Station Depth Elevation

Earthquake Activity

City Distance Mag. Time & Date
Minimum magnitude displayed is 2.5.

Coastal Water Temperatures

Lekua Tenperatura

Stations

Nearby Weather Stations

Station Location Temp Izozki haizeak Ihintzaren maila Afoinua Haizea Precip. Elev Eguneratuta Type
                   

Watches & Warnings

There are currently no watches in effect.